Time;durP1;ratioP1;P1;durP2;ratioP2;P2;SDS_P1;SDS_P2;PMS_P1;PMS_P2;Temp;Humidity;BMP_temperature;BMP_pressure;BME280_temperature;BME280_humidity;BME280_pressure;Samples;Min_cycle;Max_cycle;Signal;HPM_P1;HPM_P2
2021/12/13 00:02:23;;;;;;;175.32;43.33;;;10.90;99.90;;;;;;4986545;28;20043;-85
2021/12/13 00:05:07;;;;;;;170.63;41.03;;;10.80;99.90;;;;;;5005096;28;20087;-85
2021/12/13 00:07:37;;;;;;;159.23;42.75;;;10.80;99.90;;;;;;4998072;28;20382;-87
2021/12/13 00:10:14;;;;;;;165.07;41.45;;;10.80;99.90;;;;;;5000306;28;20050;-86
2021/12/13 00:12:45;;;;;;;149.55;41.08;;;10.90;99.90;;;;;;4999101;28;20052;-84
2021/12/13 00:15:17;;;;;;;167.00;41.53;;;10.80;99.90;;;;;;5003895;28;20051;-85
2021/12/13 00:17:50;;;;;;;140.88;39.13;;;10.80;99.90;;;;;;4997470;28;20056;-85
2021/12/13 00:20:36;;;;;;;151.13;41.20;;;10.80;99.90;;;;;;5004695;28;20883;-84
2021/12/13 00:23:11;;;;;;;127.88;37.75;;;10.90;99.90;;;;;;5006404;28;20062;-85
2021/12/13 00:25:40;;;;;;;142.35;38.35;;;10.90;99.90;;;;;;4999992;28;20039;-86
2021/12/13 00:28:13;;;;;;;144.75;39.00;;;10.90;99.90;;;;;;5006355;28;20051;-85
2021/12/13 00:30:42;;;;;;;136.73;38.10;;;10.90;99.90;;;;;;5006503;28;20589;-85
2021/12/13 00:33:46;;;;;;;135.63;37.17;;;10.90;99.90;;;;;;5007820;28;20680;-85
2021/12/13 00:36:40;;;;;;;119.78;36.20;;;10.90;99.90;;;;;;5026874;28;20054;-85
2021/12/13 00:39:18;;;;;;;119.32;35.72;;;10.90;99.90;;;;;;4985520;28;20485;-86
2021/12/13 00:41:47;;;;;;;117.95;34.17;;;10.80;99.90;;;;;;5005207;28;20056;-84
2021/12/13 00:44:30;;;;;;;107.95;35.13;;;10.90;99.90;;;;;;4993810;28;20154;-85
2021/12/13 00:46:57;;;;;;;114.60;35.35;;;10.90;99.90;;;;;;5004048;28;20048;-85
2021/12/13 00:49:27;;;;;;;108.28;34.42;;;10.90;99.90;;;;;;4991670;28;20188;-85
2021/12/13 00:51:56;;;;;;;104.60;35.33;;;10.90;99.90;;;;;;5024333;28;20035;-85
2021/12/13 00:54:35;;;;;;;91.95;33.97;;;10.90;99.90;;;;;;5012514;28;20637;-85
2021/12/13 00:57:02;;;;;;;93.57;32.85;;;10.90;99.90;;;;;;5006483;28;20150;-85
2021/12/13 00:59:42;;;;;;;88.45;32.42;;;10.90;99.90;;;;;;5006353;28;20746;-85
2021/12/13 01:02:27;;;;;;;92.22;32.72;;;10.90;99.90;;;;;;5003201;28;20048;-85
2021/12/13 01:05:08;;;;;;;95.80;32.72;;;10.90;99.90;;;;;;5009520;28;21115;-85
2021/12/13 01:07:46;;;;;;;90.13;33.08;;;10.90;99.90;;;;;;4988454;28;20051;-84
2021/12/13 01:10:50;;;;;;;83.85;32.08;;;10.90;99.90;;;;;;4999695;28;20441;-84
2021/12/13 01:13:21;;;;;;;94.75;33.38;;;10.90;99.90;;;;;;4986190;28;20066;-84
2021/12/13 01:16:20;;;;;;;89.70;31.20;;;10.90;99.90;;;;;;5004860;28;20505;-84
2021/12/13 01:21:53;;;;;;;85.32;30.48;;;10.90;99.90;;;;;;5005983;28;20047;-84
2021/12/13 01:24:42;;;;;;;78.68;30.05;;;10.90;99.90;;;;;;5002086;28;20482;-85
2021/12/13 01:27:07;;;;;;;75.15;30.25;;;10.90;99.90;;;;;;5008394;28;20057;-85
2021/12/13 01:29:35;;;;;;;73.35;30.30;;;10.90;99.90;;;;;;4987313;28;20079;-85
2021/12/13 01:32:08;;;;;;;83.40;31.23;;;10.90;99.90;;;;;;5008302;28;20467;-84
2021/12/13 01:34:37;;;;;;;77.70;29.52;;;10.90;99.90;;;;;;4996968;28;20656;-84
2021/12/13 01:37:15;;;;;;;65.55;28.70;;;10.90;99.90;;;;;;4980296;28;20078;-84
2021/12/13 01:39:47;;;;;;;73.75;30.08;;;10.90;99.90;;;;;;4983944;28;20047;-85
2021/12/13 01:42:17;;;;;;;68.30;30.40;;;10.90;99.90;;;;;;5002625;28;20043;-84
2021/12/13 01:44:55;;;;;;;71.93;29.83;;;10.90;99.90;;;;;;5007961;28;20113;-84
2021/12/13 01:47:28;;;;;;;69.32;29.77;;;10.90;99.90;;;;;;5005332;28;20043;-85
2021/12/13 01:50:14;;;;;;;67.05;28.95;;;10.90;99.90;;;;;;5003896;28;20459;-85
2021/12/13 01:52:45;;;;;;;68.22;29.38;;;10.90;99.90;;;;;;4985656;28;20489;-84
2021/12/13 01:55:42;;;;;;;75.70;28.90;;;10.90;99.90;;;;;;4982076;28;20234;-84
2021/12/13 02:01:19;;;;;;;72.85;29.42;;;10.90;99.90;;;;;;5003047;28;20544;-85
2021/12/13 02:03:48;;;;;;;68.25;28.17;;;10.90;99.90;;;;;;5008081;28;20405;-85
2021/12/13 02:06:33;;;;;;;59.60;27.52;;;10.90;99.90;;;;;;4987010;28;20109;-83
2021/12/13 02:09:13;;;;;;;63.80;26.30;;;10.90;99.90;;;;;;4987666;28;21304;-85
2021/12/13 02:11:41;;;;;;;61.75;27.63;;;10.90;99.90;;;;;;4998954;28;20396;-85
2021/12/13 02:14:16;;;;;;;61.63;25.67;;;10.90;99.90;;;;;;5003227;28;20067;-84
2021/12/13 02:17:08;;;;;;;47.72;25.02;;;10.90;99.90;;;;;;4989611;28;20237;-85
2021/12/13 02:19:45;;;;;;;51.50;25.25;;;11.00;99.90;;;;;;5003531;28;20051;-85
2021/12/13 02:22:26;;;;;;;50.28;25.60;;;11.00;99.90;;;;;;5007509;28;20293;-84
2021/12/13 02:24:54;;;;;;;49.13;25.40;;;10.90;99.90;;;;;;4997882;28;20048;-88
2021/12/13 02:27:24;;;;;;;49.78;25.92;;;10.90;99.90;;;;;;5001230;28;20059;-85
2021/12/13 02:29:54;;;;;;;46.78;24.13;;;10.90;99.90;;;;;;5007503;28;20485;-84
2021/12/13 02:32:25;;;;;;;46.67;24.73;;;10.90;99.90;;;;;;5005454;28;20048;-84
2021/12/13 02:34:52;;;;;;;46.45;24.75;;;11.00;99.90;;;;;;5000470;28;20075;-84
2021/12/13 02:37:18;;;;;;;47.70;25.10;;;11.00;99.90;;;;;;5002642;28;20290;-85
2021/12/13 02:39:47;;;;;;;41.85;24.02;;;10.90;99.90;;;;;;4999892;28;20052;-84
2021/12/13 02:42:17;;;;;;;42.88;24.15;;;10.90;99.90;;;;;;4997135;28;20569;-85
2021/12/13 02:44:49;;;;;;;40.70;23.58;;;10.90;99.90;;;;;;5002313;28;20492;-84
2021/12/13 02:47:21;;;;;;;42.40;24.02;;;10.90;99.90;;;;;;5006977;28;20036;-84
2021/12/13 02:49:47;;;;;;;41.83;24.30;;;10.90;99.90;;;;;;5001793;28;20838;-83
2021/12/13 02:52:18;;;;;;;41.63;24.25;;;11.00;99.90;;;;;;4985338;28;20043;-84
2021/12/13 02:54:49;;;;;;;41.92;24.40;;;11.00;99.90;;;;;;4999744;28;20058;-84
2021/12/13 02:57:23;;;;;;;39.63;23.55;;;11.00;99.90;;;;;;4985167;28;20051;-84
2021/12/13 03:00:07;;;;;;;36.88;23.67;;;11.00;99.90;;;;;;4977758;28;20221;-83
2021/12/13 03:02:39;;;;;;;41.40;23.95;;;10.90;99.90;;;;;;5004093;28;20434;-84
2021/12/13 03:05:11;;;;;;;36.80;24.48;;;10.90;99.90;;;;;;4979910;28;20062;-84
2021/12/13 03:07:42;;;;;;;37.60;24.13;;;10.90;99.90;;;;;;4982112;28;20043;-84
2021/12/13 03:10:18;;;;;;;37.40;23.65;;;10.90;99.90;;;;;;4987861;28;20826;-83
2021/12/13 03:12:44;;;;;;;34.38;22.50;;;10.90;99.90;;;;;;5001383;28;20560;-84
2021/12/13 03:15:20;;;;;;;32.33;20.83;;;10.90;99.90;;;;;;4982770;28;20051;-84
2021/12/13 03:17:58;;;;;;;28.55;20.63;;;10.90;99.90;;;;;;5002335;28;20054;-84
2021/12/13 03:20:53;;;;;;;29.17;19.95;;;10.90;99.90;;;;;;5002591;28;20448;-84
2021/12/13 03:23:24;;;;;;;29.85;19.70;;;10.90;99.90;;;;;;4985342;28;20051;-84
2021/12/13 03:26:27;;;;;;;23.98;17.77;;;10.80;99.90;;;;;;5000323;28;20091;-85
2021/12/13 03:29:02;;;;;;;26.98;17.10;;;10.80;99.90;;;;;;5000570;28;20050;-83
2021/12/13 03:31:35;;;;;;;22.90;16.08;;;10.80;99.90;;;;;;5005075;28;20838;-84
2021/12/13 03:34:19;;;;;;;26.10;16.23;;;10.80;99.90;;;;;;4995244;28;20090;-84
2021/12/13 03:36:55;;;;;;;23.35;14.75;;;10.80;99.90;;;;;;4997337;28;20050;-84
2021/12/13 03:39:39;;;;;;;20.98;13.95;;;10.80;99.90;;;;;;5011392;28;20043;-84
2021/12/13 03:42:09;;;;;;;21.45;12.57;;;10.70;99.90;;;;;;4975957;28;20048;-83
2021/12/13 03:44:47;;;;;;;19.63;11.75;;;10.70;99.90;;;;;;4999794;28;20051;-84
2021/12/13 03:47:19;;;;;;;18.63;10.48;;;10.70;99.90;;;;;;5001461;28;20109;-84
2021/12/13 03:49:49;;;;;;;17.13;10.80;;;10.70;99.90;;;;;;4999187;28;20056;-84
2021/12/13 03:52:19;;;;;;;19.38;10.50;;;10.70;99.90;;;;;;5014404;28;20108;-84
2021/12/13 03:54:45;;;;;;;14.50;9.82;;;10.60;99.90;;;;;;5005867;28;20075;-84
2021/12/13 03:57:13;;;;;;;18.23;10.18;;;10.60;99.90;;;;;;4983285;28;20183;-83
2021/12/13 03:59:41;;;;;;;16.73;9.35;;;10.50;99.90;;;;;;4971400;28;20055;-84
2021/12/13 04:02:16;;;;;;;17.77;9.77;;;10.50;99.90;;;;;;5005929;28;20048;-84
2021/12/13 04:04:50;;;;;;;15.73;9.05;;;10.50;99.90;;;;;;5003053;28;20048;-84
2021/12/13 04:07:20;;;;;;;17.10;9.95;;;10.40;99.90;;;;;;5006386;28;20051;-84
2021/12/13 04:09:50;;;;;;;17.10;9.80;;;10.40;99.90;;;;;;5014961;28;20452;-84
2021/12/13 04:12:17;;;;;;;15.10;9.93;;;10.30;99.90;;;;;;5003192;28;20059;-84
2021/12/13 04:14:55;;;;;;;14.98;9.65;;;10.30;99.90;;;;;;4985304;28;20413;-84
2021/12/13 04:20:32;;;;;;;14.20;9.68;;;10.20;99.90;;;;;;4914655;28;20589;-84
2021/12/13 04:23:09;;;;;;;18.90;10.38;;;10.20;99.90;;;;;;5016541;28;20043;-84
2021/12/13 04:25:39;;;;;;;16.63;10.68;;;10.20;99.90;;;;;;5005859;28;20047;-84
2021/12/13 04:28:16;;;;;;;20.00;11.15;;;10.20;99.90;;;;;;5008107;28;20043;-84
2021/12/13 04:30:52;;;;;;;19.98;12.13;;;10.10;99.90;;;;;;4986700;28;20508;-84
2021/12/13 04:33:27;;;;;;;20.02;13.32;;;10.10;99.90;;;;;;5003956;28;20882;-84
2021/12/13 04:36:16;;;;;;;19.48;13.60;;;10.20;99.90;;;;;;4982112;28;20048;-84
2021/12/13 04:39:06;;;;;;;22.67;14.90;;;10.10;99.90;;;;;;5001087;28;20047;-84
2021/12/13 04:41:37;;;;;;;21.92;14.30;;;10.00;99.90;;;;;;5024129;28;20048;-84
2021/12/13 04:44:08;;;;;;;23.35;14.43;;;10.00;99.90;;;;;;5001960;28;20047;-84
2021/12/13 04:46:37;;;;;;;22.13;14.68;;;9.90;99.90;;;;;;4988359;28;20564;-83
2021/12/13 04:49:10;;;;;;;22.95;15.63;;;9.90;99.90;;;;;;4980773;28;20057;-84
2021/12/13 04:52:14;;;;;;;22.67;14.60;;;9.80;99.90;;;;;;4984923;28;20053;-84
2021/12/13 04:54:44;;;;;;;25.98;15.48;;;9.70;99.90;;;;;;5000610;28;20300;-84
2021/12/13 04:57:12;;;;;;;27.45;16.67;;;9.80;99.90;;;;;;5007567;28;20500;-83
2021/12/13 04:59:38;;;;;;;24.80;16.08;;;9.80;99.90;;;;;;5006299;28;20733;-84
2021/12/13 05:02:08;;;;;;;28.60;17.80;;;9.70;99.90;;;;;;5004917;28;20754;-83
2021/12/13 05:04:35;;;;;;;28.42;18.38;;;9.70;99.90;;;;;;5008535;28;20055;-83
2021/12/13 05:07:05;;;;;;;29.25;17.77;;;9.60;99.90;;;;;;5022688;28;20048;-84
2021/12/13 05:09:33;;;;;;;27.33;17.35;;;9.60;99.90;;;;;;5004166;28;20875;-84
2021/12/13 05:12:01;;;;;;;33.20;20.35;;;9.60;99.90;;;;;;5004063;28;20438;-83
2021/12/13 05:14:34;;;;;;;34.88;19.58;;;9.70;99.90;;;;;;5002856;28;20268;-83
2021/12/13 05:17:11;;;;;;;33.92;20.25;;;9.70;99.90;;;;;;4979348;28;20493;-83
2021/12/13 05:19:42;;;;;;;36.45;21.50;;;9.80;99.90;;;;;;5021886;28;20054;-83
2021/12/13 05:22:11;;;;;;;37.72;20.85;;;9.80;99.90;;;;;;5001064;28;20108;-84
2021/12/13 05:25:04;;;;;;;34.15;20.08;;;9.80;99.90;;;;;;5019074;28;20083;-84
2021/12/13 05:27:35;;;;;;;37.58;20.75;;;9.80;99.90;;;;;;5003684;28;20063;-83
2021/12/13 05:30:17;;;;;;;35.72;20.52;;;9.90;99.90;;;;;;4974498;28;20043;-83
2021/12/13 05:32:50;;;;;;;33.35;20.80;;;9.90;99.90;;;;;;5006831;28;20618;-84
2021/12/13 05:35:37;;;;;;;33.53;20.35;;;9.90;99.90;;;;;;5005946;28;20436;-83
2021/12/13 05:38:07;;;;;;;35.40;21.17;;;9.80;99.90;;;;;;5002312;28;20047;-83
2021/12/13 05:40:46;;;;;;;36.63;22.17;;;9.80;99.90;;;;;;4987479;28;20056;-84
2021/12/13 05:43:29;;;;;;;37.33;21.65;;;9.80;99.90;;;;;;4999239;28;20051;-84
2021/12/13 05:46:03;;;;;;;38.92;22.33;;;9.80;99.90;;;;;;5000534;28;20051;-83
2021/12/13 05:48:35;;;;;;;37.33;22.10;;;9.80;99.90;;;;;;4998388;28;20386;-85
2021/12/13 05:51:19;;;;;;;39.17;22.77;;;9.80;99.90;;;;;;4981923;28;20067;-84
2021/12/13 05:53:52;;;;;;;35.05;22.95;;;9.80;99.90;;;;;;5000068;28;20058;-84
2021/12/13 05:56:20;;;;;;;41.97;24.92;;;9.80;99.90;;;;;;5002175;28;20051;-84
2021/12/13 05:59:08;;;;;;;41.13;23.83;;;9.80;99.90;;;;;;5000605;28;20047;-84
2021/12/13 06:01:49;;;;;;;39.15;24.23;;;9.90;99.90;;;;;;4995424;28;20657;-84
2021/12/13 06:04:32;;;;;;;40.05;23.98;;;9.90;99.90;;;;;;4972779;28;20044;-84
2021/12/13 06:06:58;;;;;;;41.78;23.77;;;9.90;99.90;;;;;;4999888;28;20043;-84
2021/12/13 06:09:39;;;;;;;42.50;23.23;;;9.80;99.90;;;;;;5021637;28;20058;-83
2021/12/13 06:12:09;;;;;;;40.88;24.30;;;9.80;99.90;;;;;;5003014;28;20886;-84
2021/12/13 06:14:36;;;;;;;43.05;25.33;;;9.80;99.90;;;;;;5003007;28;20166;-84
2021/12/13 06:17:18;;;;;;;43.83;25.17;;;9.80;99.90;;;;;;5001905;28;20117;-84
2021/12/13 06:20:14;;;;;;;46.38;26.63;;;9.80;99.90;;;;;;5005207;28;20788;-84
2021/12/13 06:22:40;;;;;;;48.38;27.40;;;9.80;99.90;;;;;;5007254;28;20935;-84
2021/12/13 06:25:14;;;;;;;44.38;27.02;;;9.80;99.90;;;;;;4980717;28;20130;-84
2021/12/13 06:27:47;;;;;;;45.78;26.15;;;9.80;99.90;;;;;;5005093;28;20082;-84
2021/12/13 06:30:21;;;;;;;49.75;28.45;;;9.80;99.90;;;;;;4984775;28;20612;-83
2021/12/13 06:32:59;;;;;;;49.60;28.70;;;9.80;99.90;;;;;;5019601;27;20044;-84
2021/12/13 06:35:37;;;;;;;47.72;28.95;;;9.80;99.90;;;;;;5017409;28;20202;-83
2021/12/13 06:38:41;;;;;;;50.25;29.13;;;9.80;99.90;;;;;;5007559;28;20146;-83
2021/12/13 06:41:12;;;;;;;49.13;30.45;;;9.80;99.90;;;;;;4975671;28;20601;-84
2021/12/13 06:43:49;;;;;;;52.58;30.23;;;9.80;99.90;;;;;;5002375;28;20063;-84
2021/12/13 06:46:32;;;;;;;49.70;30.48;;;9.80;99.90;;;;;;5003360;28;20433;-83
2021/12/13 06:49:16;;;;;;;51.28;31.70;;;9.80;99.90;;;;;;5002503;28;20556;-83
2021/12/13 06:51:51;;;;;;;52.15;32.05;;;9.80;99.90;;;;;;4983666;28;20047;-83
2021/12/13 06:54:32;;;;;;;51.95;32.40;;;9.80;99.90;;;;;;5001080;28;20497;-83
2021/12/13 06:57:23;;;;;;;50.28;32.10;;;9.80;99.90;;;;;;4978364;28;20920;-84
2021/12/13 06:59:59;;;;;;;54.25;32.42;;;9.80;99.90;;;;;;5010318;28;20132;-84
2021/12/13 07:02:27;;;;;;;51.78;32.20;;;9.80;99.90;;;;;;5012485;28;20130;-83
2021/12/13 07:05:05;;;;;;;52.47;33.30;;;9.80;99.90;;;;;;5005430;28;20443;-83
2021/12/13 07:07:52;;;;;;;54.90;33.55;;;9.80;99.90;;;;;;5005031;28;20052;-83
2021/12/13 07:10:43;;;;;;;54.25;34.30;;;9.80;99.90;;;;;;5006332;28;20664;-83
2021/12/13 07:13:56;;;;;;;52.80;33.95;;;9.80;99.90;;;;;;5017039;28;20545;-84
2021/12/13 07:16:28;;;;;;;51.38;31.42;;;9.80;99.90;;;;;;4944354;28;20056;-84
2021/12/13 07:19:06;;;;;;;51.05;32.83;;;9.70;99.90;;;;;;4986947;28;20056;-83
2021/12/13 07:21:59;;;;;;;50.60;32.63;;;9.80;99.90;;;;;;5024186;28;20516;-85
2021/12/13 07:24:43;;;;;;;56.88;33.20;;;9.80;99.90;;;;;;4980415;28;20064;-83
2021/12/13 07:27:14;;;;;;;50.83;32.60;;;9.80;99.90;;;;;;5003563;28;20051;-83
2021/12/13 07:29:54;;;;;;;51.25;32.80;;;9.80;99.90;;;;;;5001028;28;20684;-84
2021/12/13 07:32:34;;;;;;;49.80;33.17;;;9.80;99.90;;;;;;4977777;28;20079;-84
2021/12/13 07:35:16;;;;;;;51.58;33.45;;;9.80;99.90;;;;;;5001572;28;20484;-83
2021/12/13 07:38:00;;;;;;;52.83;33.15;;;9.80;99.90;;;;;;4998981;28;20144;-84
2021/12/13 07:40:32;;;;;;;50.35;32.60;;;9.80;99.90;;;;;;4985497;28;20602;-84
2021/12/13 07:43:15;;;;;;;51.80;32.63;;;9.80;99.90;;;;;;5000882;28;20974;-84
2021/12/13 07:45:47;;;;;;;53.28;34.42;;;9.70;99.90;;;;;;5004833;28;20425;-83
2021/12/13 07:48:20;;;;;;;52.55;33.03;;;9.80;99.90;;;;;;4994666;28;20056;-84
2021/12/13 07:51:01;;;;;;;51.78;33.17;;;9.80;99.90;;;;;;4998485;28;20497;-83
2021/12/13 07:53:35;;;;;;;54.33;33.30;;;9.80;99.90;;;;;;5006461;28;20534;-84
2021/12/13 07:56:03;;;;;;;51.92;32.72;;;9.80;99.90;;;;;;5001428;28;20923;-84
2021/12/13 07:58:43;;;;;;;47.95;32.72;;;9.80;99.90;;;;;;5005064;28;20060;-83
2021/12/13 08:01:23;;;;;;;50.85;32.53;;;9.80;99.90;;;;;;5006280;28;20219;-82
2021/12/13 08:04:10;;;;;;;52.80;32.20;;;9.80;99.90;;;;;;5003415;28;20370;-84
2021/12/13 08:06:51;;;;;;;50.35;32.13;;;9.80;99.90;;;;;;5007964;28;20134;-83
2021/12/13 08:09:23;;;;;;;49.35;31.52;;;9.70;99.90;;;;;;5007586;28;20124;-83
2021/12/13 08:11:53;;;;;;;48.22;31.33;;;9.80;99.90;;;;;;5005343;28;20521;-84
2021/12/13 08:14:33;;;;;;;48.80;31.58;;;9.70;99.90;;;;;;4988960;28;20063;-83
2021/12/13 08:17:24;;;;;;;48.83;31.77;;;9.80;99.90;;;;;;5002980;28;20059;-83
2021/12/13 08:19:56;;;;;;;48.88;30.98;;;9.80;99.90;;;;;;5000176;28;20051;-83
2021/12/13 08:22:28;;;;;;;46.00;30.38;;;9.70;99.90;;;;;;5004502;28;20142;-84
2021/12/13 08:25:07;;;;;;;47.45;30.67;;;9.70;99.90;;;;;;4987800;28;20047;-84
2021/12/13 08:27:39;;;;;;;47.17;29.60;;;9.70;99.90;;;;;;5001180;28;20475;-83
2021/12/13 08:30:13;;;;;;;47.28;29.88;;;9.80;99.90;;;;;;5005774;28;20060;-84
2021/12/13 08:32:59;;;;;;;45.17;29.60;;;9.80;99.90;;;;;;4987924;28;20071;-84
2021/12/13 08:35:25;;;;;;;43.00;29.13;;;9.80;99.90;;;;;;5008606;28;20046;-84
2021/12/13 08:37:59;;;;;;;49.97;29.80;;;9.80;99.90;;;;;;4979167;28;20521;-84
2021/12/13 08:40:29;;;;;;;45.20;30.15;;;9.80;99.90;;;;;;4995217;28;20040;-85
2021/12/13 08:43:00;;;;;;;46.00;29.83;;;9.80;99.90;;;;;;5001383;28;20075;-83
2021/12/13 08:45:39;;;;;;;45.38;29.23;;;9.80;99.90;;;;;;4985396;28;20055;-83
2021/12/13 08:48:16;;;;;;;42.28;28.35;;;9.70;99.90;;;;;;5021115;28;20036;-83
2021/12/13 08:50:48;;;;;;;46.20;29.17;;;9.80;99.90;;;;;;5001478;28;20056;-81
2021/12/13 08:53:29;;;;;;;43.05;27.08;;;9.80;99.90;;;;;;5008070;28;20078;-84
2021/12/13 08:56:10;;;;;;;40.83;27.95;;;9.80;99.90;;;;;;5004815;28;20040;-82
2021/12/13 08:58:48;;;;;;;43.40;28.10;;;9.80;99.90;;;;;;4981140;28;20047;-82
2021/12/13 09:01:15;;;;;;;40.70;27.83;;;9.80;99.90;;;;;;5013080;28;20701;-84
2021/12/13 09:03:43;;;;;;;42.63;27.70;;;9.80;99.90;;;;;;5008566;28;20055;-83
2021/12/13 09:06:18;;;;;;;39.58;28.02;;;9.80;99.90;;;;;;5002235;28;20090;-82
2021/12/13 09:08:47;;;;;;;41.08;27.52;;;9.80;99.90;;;;;;5007286;28;20121;-83
2021/12/13 09:11:36;;;;;;;39.88;26.45;;;9.90;99.90;;;;;;4986491;28;20047;-86
2021/12/13 09:14:29;;;;;;;39.38;26.38;;;9.90;99.90;;;;;;5008244;28;20051;-84
2021/12/13 09:17:11;;;;;;;40.03;26.15;;;9.90;99.90;;;;;;5010586;28;20047;-83
2021/12/13 09:19:44;;;;;;;40.97;27.00;;;9.80;99.90;;;;;;5005901;28;20481;-84
2021/12/13 09:22:31;;;;;;;40.70;27.10;;;9.80;99.90;;;;;;5025586;28;20438;-83
2021/12/13 09:25:06;;;;;;;38.65;25.73;;;9.80;99.90;;;;;;5023509;28;20046;-84
2021/12/13 09:27:38;;;;;;;38.28;25.23;;;9.90;99.90;;;;;;5009059;28;20051;-84
2021/12/13 09:30:13;;;;;;;39.38;25.75;;;9.90;99.90;;;;;;5004640;28;20050;-82
2021/12/13 09:32:48;;;;;;;37.00;24.40;;;9.90;99.90;;;;;;5004821;28;20151;-84
2021/12/13 09:35:35;;;;;;;38.42;25.52;;;9.90;99.90;;;;;;4992152;28;20043;-84
2021/12/13 09:38:25;;;;;;;35.42;25.00;;;9.90;99.90;;;;;;4985525;28;20050;-82
2021/12/13 09:41:22;;;;;;;37.33;25.13;;;9.90;99.90;;;;;;4987846;28;20055;-83
2021/12/13 09:44:29;;;;;;;35.67;24.48;;;9.90;99.90;;;;;;5003373;28;20490;-84
2021/12/13 09:47:11;;;;;;;39.03;25.05;;;10.00;99.90;;;;;;4962345;28;20062;-84
2021/12/13 09:49:47;;;;;;;35.17;23.17;;;9.90;99.90;;;;;;4992399;28;21141;-84
2021/12/13 09:52:19;;;;;;;36.70;22.90;;;10.00;99.90;;;;;;4996110;28;20321;-85
2021/12/13 09:55:10;;;;;;;35.65;23.52;;;9.90;99.90;;;;;;4993930;28;20523;-84
2021/12/13 09:57:38;;;;;;;34.72;23.63;;;10.00;99.90;;;;;;5004892;28;20190;-84
2021/12/13 10:00:40;;;;;;;31.80;22.33;;;10.00;99.90;;;;;;5008527;28;20156;-84
2021/12/13 10:03:23;;;;;;;32.47;21.40;;;10.00;99.90;;;;;;5009118;28;20080;-84
2021/12/13 10:05:54;;;;;;;30.65;21.65;;;10.00;99.90;;;;;;5005565;28;20054;-84
2021/12/13 10:08:25;;;;;;;32.78;21.65;;;10.00;99.90;;;;;;5009860;28;20766;-84
2021/12/13 10:11:08;;;;;;;31.38;22.60;;;10.10;99.90;;;;;;5003604;28;20221;-83
2021/12/13 10:13:38;;;;;;;32.55;21.92;;;10.10;99.90;;;;;;5000321;28;20793;-84
2021/12/13 10:16:26;;;;;;;31.00;21.40;;;10.10;99.90;;;;;;5002946;28;20757;-84
2021/12/13 10:18:53;;;;;;;31.92;20.85;;;10.10;99.90;;;;;;5017048;28;20800;-84
2021/12/13 10:21:49;;;;;;;29.90;20.58;;;10.00;99.90;;;;;;4983344;28;20120;-84
2021/12/13 10:24:34;;;;;;;31.15;20.80;;;10.00;99.90;;;;;;4989608;28;20059;-84
2021/12/13 10:27:02;;;;;;;30.52;21.05;;;10.00;99.90;;;;;;5006335;28;20047;-83
2021/12/13 10:29:28;;;;;;;29.35;20.33;;;10.00;99.90;;;;;;5005733;28;20047;-84
2021/12/13 10:32:08;;;;;;;41.25;21.77;;;10.00;99.90;;;;;;4972748;28;20681;-83
2021/12/13 10:34:45;;;;;;;30.52;20.45;;;10.00;99.90;;;;;;5001631;28;20052;-82
2021/12/13 10:37:32;;;;;;;30.23;19.55;;;10.00;99.90;;;;;;5021936;28;20047;-85
2021/12/13 10:40:10;;;;;;;29.30;19.92;;;10.00;99.90;;;;;;5017708;28;20048;-84
2021/12/13 10:42:44;;;;;;;28.23;20.65;;;10.00;99.90;;;;;;5006487;28;21554;-84
2021/12/13 10:45:13;;;;;;;;;;;10.10;99.90;;;;;;5006826;28;20119;-83
2021/12/13 10:47:50;;;;;;;31.17;20.58;;;10.10;99.90;;;;;;5005209;28;19991;-83
2021/12/13 10:50:40;;;;;;;29.55;20.30;;;10.10;99.90;;;;;;5004553;28;20700;-82
2021/12/13 10:53:08;;;;;;;30.38;20.23;;;10.00;99.90;;;;;;5003633;28;20055;-84
2021/12/13 10:55:44;;;;;;;29.55;19.63;;;10.10;99.90;;;;;;5002187;28;20998;-85
2021/12/13 10:58:24;;;;;;;30.08;20.38;;;10.10;99.90;;;;;;5004773;28;20046;-85
2021/12/13 11:00:59;;;;;;;29.40;19.50;;;10.10;99.90;;;;;;5001611;28;20306;-84
2021/12/13 11:03:27;;;;;;;27.33;19.85;;;10.10;99.90;;;;;;5007637;28;20480;-84
2021/12/13 11:05:55;;;;;;;25.63;18.63;;;10.10;99.90;;;;;;4981845;28;20902;-84
2021/12/13 11:08:23;;;;;;;27.42;19.13;;;10.10;99.90;;;;;;4988491;28;20056;-84
2021/12/13 11:10:56;;;;;;;27.15;19.15;;;10.10;99.90;;;;;;5000431;28;20047;-83
2021/12/13 11:13:27;;;;;;;28.08;18.73;;;10.10;99.90;;;;;;5004896;28;20502;-83
2021/12/13 11:15:57;;;;;;;26.67;18.10;;;10.10;99.90;;;;;;4980806;28;20052;-85
2021/12/13 11:18:27;;;;;;;26.45;18.52;;;10.10;99.90;;;;;;5001048;28;20619;-85
2021/12/13 11:20:56;;;;;;;25.40;18.30;;;10.10;99.90;;;;;;5009142;28;20058;-84
2021/12/13 11:23:22;;;;;;;25.77;18.10;;;10.10;99.90;;;;;;5009198;28;20051;-84
2021/12/13 11:25:57;;;;;;;28.35;18.30;;;10.10;99.90;;;;;;5005697;28;20442;-84
2021/12/13 11:28:25;;;;;;;25.67;18.30;;;10.10;99.90;;;;;;5022269;28;20271;-84
2021/12/13 11:30:53;;;;;;;25.92;18.33;;;10.10;99.90;;;;;;4988006;28;20051;-85
2021/12/13 11:33:37;;;;;;;25.83;18.27;;;10.10;99.90;;;;;;4989718;28;20531;-86
2021/12/13 11:36:39;;;;;;;26.00;18.25;;;10.10;99.90;;;;;;4989783;28;20092;-84
2021/12/13 11:39:45;;;;;;;25.08;17.52;;;10.10;99.90;;;;;;4957899;28;20451;-83
2021/12/13 11:42:33;;;;;;;26.48;18.00;;;10.10;99.90;;;;;;4977295;28;20048;-84
2021/12/13 11:45:04;;;;;;;23.52;17.70;;;10.10;99.90;;;;;;4980690;28;20464;-83
2021/12/13 11:47:50;;;;;;;27.20;18.80;;;10.20;99.90;;;;;;5006295;28;20278;-83
2021/12/13 11:50:38;;;;;;;24.77;18.05;;;10.10;99.90;;;;;;5008479;28;20051;-84
2021/12/13 11:53:30;;;;;;;25.70;17.65;;;10.10;99.90;;;;;;4980269;28;20367;-82
2021/12/13 11:56:14;;;;;;;27.80;18.23;;;10.20;99.90;;;;;;4995205;28;20086;-82
2021/12/13 11:59:11;;;;;;;26.25;18.02;;;10.20;99.90;;;;;;5005131;28;20544;-84
2021/12/13 12:01:56;;;;;;;25.65;18.10;;;10.20;99.90;;;;;;5002771;28;20116;-83
2021/12/13 12:05:05;;;;;;;26.08;17.70;;;10.20;99.90;;;;;;4988244;28;20044;-85
2021/12/13 12:07:52;;;;;;;21.98;16.65;;;10.20;99.90;;;;;;4977447;28;20060;-85
2021/12/13 12:10:27;;;;;;;24.77;16.73;;;10.20;99.90;;;;;;5007360;28;20043;-83
2021/12/13 12:13:15;;;;;;;28.40;17.45;;;10.20;99.90;;;;;;5006019;28;20044;-84
2021/12/13 12:15:43;;;;;;;24.52;16.80;;;10.20;99.90;;;;;;4970945;28;20044;-84
2021/12/13 12:18:13;;;;;;;22.45;16.05;;;10.20;99.90;;;;;;4983867;28;20519;-84
2021/12/13 12:20:45;;;;;;;26.00;17.52;;;10.20;99.90;;;;;;5006123;28;20470;-83
2021/12/13 12:23:28;;;;;;;22.35;16.48;;;10.20;99.90;;;;;;5011542;28;20080;-86
2021/12/13 12:25:57;;;;;;;26.25;17.02;;;10.10;99.90;;;;;;4989697;28;20087;-84
2021/12/13 12:28:25;;;;;;;23.98;17.33;;;10.10;99.90;;;;;;4990454;28;20127;-83
2021/12/13 12:30:55;;;;;;;27.05;16.75;;;10.10;99.90;;;;;;4997672;28;20882;-84
2021/12/13 12:33:40;;;;;;;24.38;16.50;;;10.20;99.90;;;;;;4976405;28;20589;-85
2021/12/13 12:36:22;;;;;;;25.33;16.98;;;10.20;99.90;;;;;;4989518;28;20071;-84
2021/12/13 12:39:06;;;;;;;21.60;16.38;;;10.20;99.90;;;;;;4989702;28;20760;-85
2021/12/13 12:41:51;;;;;;;22.73;16.42;;;10.20;99.90;;;;;;4971575;28;20048;-84
2021/12/13 12:44:21;;;;;;;21.77;16.50;;;10.20;99.90;;;;;;4989146;28;20745;-86
2021/12/13 12:46:47;;;;;;;24.38;16.58;;;10.20;99.90;;;;;;4973339;28;20247;-85
2021/12/13 12:49:23;;;;;;;24.15;16.83;;;10.20;99.90;;;;;;4989143;28;20130;-85
2021/12/13 12:51:52;;;;;;;24.42;16.70;;;10.20;99.90;;;;;;4987711;28;20368;-84
2021/12/13 12:54:21;;;;;;;22.77;16.92;;;10.20;99.90;;;;;;4991320;28;20386;-84
2021/12/13 12:56:55;;;;;;;22.17;15.73;;;10.20;99.90;;;;;;4990127;28;20040;-84
2021/12/13 12:59:27;;;;;;;23.90;16.58;;;10.20;99.90;;;;;;4991728;28;20044;-86
2021/12/13 13:02:08;;;;;;;24.55;16.98;;;10.20;99.90;;;;;;5003537;28;20737;-85
2021/12/13 13:04:41;;;;;;;24.67;16.83;;;10.20;99.90;;;;;;4994578;28;20040;-85
2021/12/13 13:07:06;;;;;;;24.90;15.35;;;10.20;99.90;;;;;;4991970;28;20050;-85
2021/12/13 13:09:54;;;;;;;23.17;15.60;;;10.20;99.90;;;;;;4988894;28;20335;-85
2021/12/13 13:12:28;;;;;;;20.30;15.15;;;10.20;99.90;;;;;;4999110;28;20547;-86
2021/12/13 13:15:04;;;;;;;21.17;14.98;;;10.20;99.90;;;;;;5003996;28;20143;-85
2021/12/13 13:17:33;;;;;;;21.48;14.55;;;10.20;99.90;;;;;;5007617;28;20068;-84
2021/12/13 13:20:05;;;;;;;21.17;15.30;;;10.20;99.90;;;;;;5030721;28;20090;-85
2021/12/13 13:22:35;;;;;;;22.38;16.02;;;10.20;99.90;;;;;;4992910;28;20742;-85
2021/12/13 13:25:12;;;;;;;21.33;14.77;;;10.20;99.90;;;;;;5008995;28;20047;-85
2021/12/13 13:27:38;;;;;;;18.95;14.95;;;10.20;99.90;;;;;;5008666;28;20135;-86
2021/12/13 13:30:33;;;;;;;24.02;15.90;;;10.20;99.90;;;;;;4986743;28;21018;-85